»·PEaware :: N103MR KPDX-3S4

N103MR :: KPDX-3S4

FLIGHT INFORMATION

Flight Status: Arrived
Operator: Privately registered:
United States
More flights under this callsign
Pilot: Michael R. (16974)
Aircraft: BEECH AIRCRAFT BARON
(BE58)
More flights by this aircraft type
Origin: KPDX Portland Intl
United States
Destination: 3S4 Illinois Valley
United States
More flights between these airports :: More routes between these airports
Route: CANBY V23 EUG V448 RBG V495 PAPLE
File this flight plan on PilotEdge
Remarks:
Altitude:
(Current/Filed)
10,000ft
Speed:
(Current/Filed)
180kts
Departed: 22-Dec-17 07:37 PM
Arrived: 22-Dec-17 09:02 PM
Distance/Time
Traveled:
216nm/1:25
Distance/Time
To Go:
Arrived

Flight Plot

Page will automatically refresh every two minutes.

Flight plan parsing failed; only flown route is shown


Map Options




Map Legend


Flown Route
Filed Route
Departure Airport
Arrival Airport
Navaid (VOR, NDB)
Fix

Horizontal Profiles

Position Reports

Time Latitude Longitude Heading Altitude Ground
Speed
22-Dec-17 19:21 45.585006 -122.578284 247 20ft 0kts
22-Dec-17 19:22 45.585006 -122.578284 247 20ft 0kts
22-Dec-17 19:23 45.585006 -122.578284 247 20ft 0kts
22-Dec-17 19:24 45.585006 -122.578284 247 20ft 0kts
22-Dec-17 19:25 45.585006 -122.578284 247 20ft 0kts
22-Dec-17 19:26 45.585006 -122.578284 247 20ft 0kts
22-Dec-17 19:27 45.585006 -122.578284 247 20ft 0kts
22-Dec-17 19:28 45.585006 -122.578284 247 20ft 0kts
22-Dec-17 19:29 45.585006 -122.578284 247 20ft 0kts
22-Dec-17 19:30 45.585006 -122.578284 247 20ft 0kts
22-Dec-17 19:31 45.585006 -122.578284 247 20ft 0kts
22-Dec-17 19:32 45.585006 -122.578284 247 20ft 0kts
22-Dec-17 19:33 45.585138 -122.577761 73 20ft 4kts
22-Dec-17 19:34 45.585379 -122.577133 30 20ft 0kts
22-Dec-17 19:35 45.585379 -122.577133 30 20ft 0kts
22-Dec-17 19:36 45.585857 -122.576727 32 20ft 10kts
22-Dec-17 19:37 45.588650 -122.583072 303 20ft 25kts
22-Dec-17 19:38 45.592331 -122.592454 304 20ft 25kts
22-Dec-17 19:39 45.593983 -122.596072 359 23ft 0kts
22-Dec-17 19:40 45.593983 -122.596072 359 23ft 0kts
22-Dec-17 19:41 45.593983 -122.596072 359 23ft 0kts
22-Dec-17 19:42 45.594231 -122.594208 117 20ft 0kts
22-Dec-17 19:43 45.586576 -122.575116 121 446ft 102kts
22-Dec-17 19:44 45.572792 -122.538560 118 1989ft 98kts
22-Dec-17 19:45 45.553363 -122.511777 188 3168ft 112kts
22-Dec-17 19:46 45.529369 -122.543143 223 4201ft 133kts
22-Dec-17 19:47 45.499817 -122.573842 218 5442ft 126kts
22-Dec-17 19:48 45.471657 -122.602266 219 6310ft 124kts
22-Dec-17 19:49 45.443066 -122.631181 220 7034ft 128kts
22-Dec-17 19:50 45.414470 -122.660025 221 7734ft 130kts
22-Dec-17 19:51 45.384498 -122.690281 222 8467ft 134kts
22-Dec-17 19:52 45.354873 -122.720093 223 9342ft 129kts
22-Dec-17 19:53 45.324956 -122.750291 223 9981ft 142kts
22-Dec-17 19:54 45.283683 -122.775402 203 9988ft 177kts
22-Dec-17 19:55 45.237794 -122.793230 205 9984ft 167kts
22-Dec-17 19:56 45.192750 -122.811010 205 9988ft 171kts
22-Dec-17 19:57 45.145630 -122.829510 205 9959ft 178kts
22-Dec-17 19:58 45.098410 -122.847901 205 9957ft 175kts
22-Dec-17 19:59 45.051546 -122.866167 205 9958ft 174kts
22-Dec-17 20:00 45.005076 -122.884250 205 9958ft 174kts
22-Dec-17 20:01 44.958448 -122.902362 205 9958ft 174kts
22-Dec-17 20:02 44.912106 -122.921340 208 9958ft 173kts
22-Dec-17 20:03 44.867180 -122.941923 208 9955ft 172kts
22-Dec-17 20:04 44.820953 -122.960363 204 9955ft 174kts
22-Dec-17 20:05 44.774008 -122.976981 204 9955ft 174kts
22-Dec-17 20:06 44.727061 -122.993413 207 9955ft 173kts
22-Dec-17 20:07 44.680731 -123.009876 207 9955ft 171kts
22-Dec-17 20:08 44.635172 -123.027168 208 9978ft 169kts
22-Dec-17 20:09 44.589843 -123.044579 208 9983ft 169kts
22-Dec-17 20:10 44.544486 -123.061948 208 9983ft 169kts
22-Dec-17 20:11 44.498993 -123.079335 208 9983ft 169kts
22-Dec-17 20:12 44.453396 -123.096735 208 9983ft 170kts
22-Dec-17 20:13 44.407946 -123.114053 208 9983ft 170kts
22-Dec-17 20:14 44.362283 -123.131422 208 9983ft 170kts
22-Dec-17 20:15 44.317045 -123.148599 208 9992ft 169kts
22-Dec-17 20:16 44.271461 -123.165885 208 9992ft 170kts
22-Dec-17 20:17 44.226160 -123.182944 210 9991ft 167kts
22-Dec-17 20:18 44.182091 -123.199649 210 9991ft 163kts
22-Dec-17 20:19 44.138383 -123.216166 210 9991ft 162kts
22-Dec-17 20:20 44.093055 -123.227502 202 9991ft 169kts
22-Dec-17 20:21 44.046346 -123.235462 202 9991ft 169kts
22-Dec-17 20:22 43.999928 -123.243350 202 9991ft 169kts
22-Dec-17 20:23 43.953301 -123.251283 202 9993ft 168kts
22-Dec-17 20:24 43.907076 -123.259099 202 9990ft 167kts
22-Dec-17 20:25 43.862053 -123.266694 202 9990ft 166kts
22-Dec-17 20:26 43.816334 -123.274413 202 9990ft 166kts
22-Dec-17 20:27 43.770569 -123.282128 202 9990ft 165kts
22-Dec-17 20:28 43.724758 -123.289896 200 9990ft 166kts
22-Dec-17 20:29 43.678998 -123.297541 200 9988ft 166kts
22-Dec-17 20:30 43.633104 -123.305232 200 9990ft 166kts
22-Dec-17 20:31 43.587280 -123.312907 200 9990ft 166kts
22-Dec-17 20:32 43.541386 -123.320585 200 9990ft 166kts
22-Dec-17 20:33 43.495451 -123.328256 200 9990ft 166kts
22-Dec-17 20:34 43.448762 -123.333042 196 9990ft 169kts
22-Dec-17 20:35 43.401759 -123.336425 196 9990ft 169kts
22-Dec-17 20:36 43.362581 -123.339249 196 9990ft 169kts
22-Dec-17 20:37 43.307908 -123.343182 196 9990ft 169kts
22-Dec-17 20:38 43.268640 -123.345984 196 9990ft 169kts
22-Dec-17 20:39 43.221626 -123.349398 196 9990ft 170kts
22-Dec-17 20:40 43.165736 -123.349826 187 9990ft 177kts
22-Dec-17 20:41 43.124971 -123.344056 187 9990ft 177kts
22-Dec-17 20:42 43.075806 -123.337107 187 9990ft 177kts
22-Dec-17 20:43 43.026862 -123.330205 187 9990ft 177kts
22-Dec-17 20:44 42.977570 -123.323260 187 9990ft 177kts
22-Dec-17 20:45 42.928445 -123.316393 186 9923ft 181kts
22-Dec-17 20:46 42.879869 -123.309493 187 9462ft 172kts
22-Dec-17 20:47 42.833857 -123.303045 187 8422ft 165kts
22-Dec-17 20:48 42.788720 -123.296759 186 7429ft 161kts
22-Dec-17 20:49 42.744390 -123.290623 185 6935ft 167kts
22-Dec-17 20:50 42.696133 -123.283893 184 6931ft 175kts
22-Dec-17 20:51 42.648703 -123.277223 184 6931ft 169kts
22-Dec-17 20:52 42.602207 -123.270731 184 6932ft 168kts
22-Dec-17 20:53 42.555799 -123.264321 184 6932ft 167kts
22-Dec-17 20:54 42.510572 -123.260735 212 6910ft 157kts
22-Dec-17 20:55 42.477611 -123.300641 227 4685ft 134kts
22-Dec-17 20:56 42.453398 -123.334970 231 4491ft 152kts
22-Dec-17 20:57 42.419817 -123.381785 236 4523ft 185kts
22-Dec-17 20:58 42.392937 -123.440480 247 4518ft 183kts
22-Dec-17 20:59 42.371186 -123.501889 252 3856ft 181kts
22-Dec-17 21:00 42.350484 -123.562259 249 3039ft 155kts
22-Dec-17 21:01 42.322372 -123.599719 199 3099ft 162kts
22-Dec-17 21:02 42.278920 -123.618111 204 2740ft 151kts
22-Dec-17 21:03 42.242218 -123.635697 202 2156ft 133kts
22-Dec-17 21:04 42.208571 -123.650134 192 1782ft 122kts
22-Dec-17 21:05 42.174235 -123.660293 195 1765ft 143kts
22-Dec-17 21:06 42.136417 -123.669423 195 1992ft 131kts
22-Dec-17 21:07 42.107735 -123.680717 196 1373ft 85kts
22-Dec-17 21:08 42.104109 -123.683019 12 1380ft 0kts
22-Dec-17 21:09 42.104109 -123.683019 12 1380ft 0kts
22-Dec-17 21:10 42.104109 -123.683019 12 1380ft 0kts
22-Dec-17 21:11 42.104109 -123.683019 12 1380ft 0kts
22-Dec-17 21:12 42.104109 -123.683019 12 1380ft 0kts
22-Dec-17 21:13 42.104109 -123.683019 12 1380ft 0kts
22-Dec-17 21:14 42.104109 -123.683019 12 1380ft 0kts
22-Dec-17 21:15 42.104109 -123.683019 12 1380ft 0kts
22-Dec-17 21:16 42.104109 -123.683019 12 1380ft 0kts
22-Dec-17 21:17 42.104110 -123.683019 12 1380ft 0kts
22-Dec-17 21:18 42.104110 -123.683019 12 1380ft 0kts
22-Dec-17 21:19 42.104885 -123.682728 18 1379ft 21kts
22-Dec-17 21:20 42.109738 -123.679960 191 1368ft 6kts
22-Dec-17 21:21 42.094848 -123.685818 188 1828ft 118kts
22-Dec-17 21:22 42.064519 -123.656595 122 2111ft 152kts

Navigation Log

Ident Type
Flight plan parsing failed, navigation log unavailable